Pagina principale
METAR-TAF:

METAR-TAF

Aeroporti :

Aeroporto di Albenga

Albenga, Italia

latitudine: 44-03N, longitudine: 008-07E, altezza: 45 m

Osservazione

Il bollettino è stato emesso 6 ore e 12 minuti fa, alle 15:50 UTC
Vento 5 kt da nord/nord-est
Temperature 10°C
Umidità 46%
Pressione 1017 hPa
Visibilità 10 km o più
Cielo coperto ad un'altezza di 5000 ft

METAR: LIMG 121550Z 02005KT 9999 OVC050 10/M01 Q1017

Ora: 23:02 (22:02 UTC)


TAF: mancante

Osservazioni e previsioni meteorologiche di più di 4000 aeroporti (messaggi METAR e TAF).

Le stazioni disponibili sono rappresentate dai dischi gialli e rossi sulla carta.

Puntare il mouse per vedere il nome della stazione.

Clicca sopra per visualizzare le osservazioni e previsioni meteorologiche.

Per cambiare la mappa : fare clic sui pulsanti verdi con una croce nera per ingrandire, il pulsante verde con un trattino per diminuire, o sulla freccia verde per le mappe adiacenti.


METAR-TAF: